createdAt,value
2018-12-09T00:00:39.711Z,98577.41
2018-12-09T00:03:07.211Z,98547.47
2018-12-09T00:05:34.798Z,98485.03
2018-12-09T00:08:02.303Z,98532.20
2018-12-09T00:10:29.815Z,98538.83
2018-12-09T00:12:57.344Z,98531.26
2018-12-09T00:15:24.847Z,98534.84
2018-12-09T00:17:52.387Z,98529.93
2018-12-09T00:20:19.899Z,98530.87
2018-12-09T00:22:47.418Z,98524.30
2018-12-09T00:25:14.948Z,98514.77
2018-12-09T00:27:42.451Z,98535.80
2018-12-09T00:30:10.099Z,98545.37
2018-12-09T00:32:37.599Z,98536.64
2018-12-09T00:35:05.224Z,98547.30
2018-12-09T00:37:33.072Z,98547.09
2018-12-09T00:40:00.573Z,98550.29
2018-12-09T00:42:28.191Z,98547.23
2018-12-09T00:44:55.704Z,98555.65
2018-12-09T00:47:23.228Z,98561.59
2018-12-09T00:49:50.763Z,98556.73
2018-12-09T00:52:18.267Z,98553.55
2018-12-09T00:54:45.809Z,98556.75
2018-12-09T00:57:13.316Z,98554.88
2018-12-09T00:59:42.759Z,98565.81
2018-12-09T01:02:10.291Z,98567.44
2018-12-09T01:04:37.797Z,98571.64
2018-12-09T01:07:05.445Z,98568.53
2018-12-09T01:09:32.947Z,98565.10
2018-12-09T01:12:00.860Z,98542.95
2018-12-09T01:14:28.391Z,98539.60
2018-12-09T01:16:55.991Z,98531.23
2018-12-09T01:19:23.671Z,98531.48
2018-12-09T01:21:51.180Z,98531.31
2018-12-09T01:24:18.711Z,98536.84
2018-12-09T01:26:46.252Z,98529.00
2018-12-09T01:29:13.769Z,98518.47
2018-12-09T01:31:41.595Z,98525.06
2018-12-09T01:34:09.103Z,98510.88
2018-12-09T01:36:36.616Z,98506.89
2018-12-09T01:39:05.551Z,98505.27
2018-12-09T01:41:33.059Z,98506.67
2018-12-09T01:44:00.612Z,98488.33
2018-12-09T01:46:28.907Z,98500.90
2018-12-09T01:48:56.438Z,98505.81
2018-12-09T01:51:23.986Z,98506.29
2018-12-09T01:54:10.256Z,98520.70
2018-12-09T01:56:39.492Z,98506.51
2018-12-09T01:59:07.044Z,98510.31
2018-12-09T02:01:34.556Z,98506.67
2018-12-09T02:04:02.192Z,98505.91
2018-12-09T02:06:30.232Z,98497.95
2018-12-09T02:08:57.779Z,98506.59
2018-12-09T02:11:25.395Z,98508.05
2018-12-09T02:13:52.901Z,98511.34
2018-12-09T02:16:20.541Z,98517.75
2018-12-09T02:18:50.976Z,98512.66
2018-12-09T02:21:18.775Z,98514.80
2018-12-09T02:23:46.283Z,98521.13
2018-12-09T02:26:13.792Z,98533.50
2018-12-09T02:28:41.855Z,98540.42
2018-12-09T02:31:09.370Z,98546.76
2018-12-09T02:33:37.191Z,98571.27
2018-12-09T02:36:04.736Z,98581.70
2018-12-09T02:38:32.352Z,98592.14
2018-12-09T02:41:00.320Z,98591.23
2018-12-09T02:43:27.824Z,98609.20
2018-12-09T02:45:55.527Z,98567.46
2018-12-09T02:48:23.742Z,98566.05
2018-12-09T02:50:51.251Z,98584.28
2018-12-09T02:53:19.275Z,98577.66
2018-12-09T02:55:46.783Z,98574.75
2018-12-09T02:58:14.327Z,98564.47
2018-12-09T03:00:41.939Z,98564.55
2018-12-09T03:03:09.475Z,98568.31
2018-12-09T03:05:37.004Z,98572.49
2018-12-09T03:08:04.512Z,98562.16
2018-12-09T03:10:32.323Z,98568.31
2018-12-09T03:12:59.853Z,98560.39
2018-12-09T03:15:27.381Z,98573.53
2018-12-09T03:17:54.928Z,98579.61
2018-12-09T03:20:22.453Z,98576.96
2018-12-09T03:22:50.004Z,98573.15
2018-12-09T03:25:17.512Z,98574.08
2018-12-09T03:27:45.060Z,98574.34
2018-12-09T03:30:12.725Z,98583.82
2018-12-09T03:32:40.246Z,98580.98
2018-12-09T03:35:07.923Z,98587.06
2018-12-09T03:37:35.469Z,98587.33
2018-12-09T03:40:03.100Z,98594.13
2018-12-09T03:42:30.643Z,98596.86
2018-12-09T03:44:58.171Z,98594.16
2018-12-09T03:47:25.823Z,98589.09
2018-12-09T03:49:53.335Z,98600.39
2018-12-09T03:52:20.864Z,98575.61
2018-12-09T03:54:48.423Z,98570.77
2018-12-09T03:57:15.931Z,98568.77
2018-12-09T03:59:43.620Z,98566.73
2018-12-09T04:02:11.147Z,98558.16
2018-12-09T04:04:38.685Z,98565.11
2018-12-09T04:07:06.232Z,98568.29
2018-12-09T04:09:33.752Z,98576.48
2018-12-09T04:12:01.561Z,98591.68
2018-12-09T04:14:29.083Z,98584.76
2018-12-09T04:16:56.607Z,98593.17
2018-12-09T04:19:24.151Z,98583.81
2018-12-09T04:21:51.890Z,98584.42
2018-12-09T04:24:19.464Z,98589.03
2018-12-09T04:26:46.977Z,98624.02
2018-12-09T04:29:14.487Z,98632.89
2018-12-09T04:31:42.121Z,98618.41
2018-12-09T04:34:09.633Z,98638.78
2018-12-09T04:36:37.211Z,98620.94
2018-12-09T04:39:05.121Z,98616.64
2018-12-09T04:41:32.637Z,98618.45
2018-12-09T04:44:00.188Z,98639.84
2018-12-09T04:46:27.700Z,98631.98
2018-12-09T04:48:55.432Z,98654.12
2018-12-09T04:51:22.967Z,98643.45
2018-12-09T04:53:50.475Z,98642.73
2018-12-09T04:56:18.027Z,98632.56
2018-12-09T04:58:53.003Z,98653.19
2018-12-09T05:01:20.537Z,98641.59
2018-12-09T05:03:48.068Z,98660.65
2018-12-09T05:06:15.620Z,98651.22
2018-12-09T05:08:43.155Z,98648.03
2018-12-09T05:11:10.663Z,98647.44
2018-12-09T05:13:38.226Z,98648.90
2018-12-09T05:16:05.835Z,98642.14
2018-12-09T05:18:33.599Z,98643.55
2018-12-09T05:21:01.107Z,98647.39
2018-12-09T05:23:28.767Z,98642.37
2018-12-09T05:25:56.272Z,98652.66
2018-12-09T05:28:24.440Z,98651.16
2018-12-09T05:30:52.403Z,98648.20
2018-12-09T05:33:19.932Z,98648.24
2018-12-09T05:35:47.504Z,98655.75
2018-12-09T05:38:15.008Z,98660.01
2018-12-09T05:40:43.675Z,98665.18
2018-12-09T05:43:11.528Z,98652.60
2018-12-09T05:45:39.041Z,98657.44
2018-12-09T05:48:06.579Z,98664.80
2018-12-09T05:50:34.099Z,98663.21
2018-12-09T05:53:01.639Z,98665.08
2018-12-09T05:55:29.572Z,98666.63
2018-12-09T05:58:07.471Z,98663.91
2018-12-09T06:00:34.994Z,98669.71
2018-12-09T06:03:02.539Z,98664.92
2018-12-09T06:05:30.099Z,98671.55
2018-12-09T06:07:57.620Z,98681.67
2018-12-09T06:10:25.362Z,98682.19
2018-12-09T06:12:52.872Z,98684.98
2018-12-09T06:15:20.419Z,98684.48
2018-12-09T06:18:01.046Z,98683.30
2018-12-09T06:20:28.732Z,98696.76
2018-12-09T06:22:56.261Z,98707.53
2018-12-09T06:25:23.885Z,98715.25
2018-12-09T06:27:51.436Z,98711.75
2018-12-09T06:30:18.943Z,98708.22
2018-12-09T06:32:46.482Z,98709.87
2018-12-09T06:35:17.747Z,98726.41
2018-12-09T06:37:45.296Z,98729.27
2018-12-09T06:40:12.835Z,98730.81
2018-12-09T06:42:40.588Z,98735.34
2018-12-09T06:45:08.338Z,98736.75
2018-12-09T06:47:35.853Z,98740.11
2018-12-09T06:50:04.463Z,98738.14
2018-12-09T06:52:31.983Z,98736.98
2018-12-09T06:54:59.499Z,98739.09
2018-12-09T06:57:27.043Z,98732.83
2018-12-09T06:59:54.577Z,98740.81
2018-12-09T07:02:23.079Z,98738.84
2018-12-09T07:04:50.591Z,98729.33
2018-12-09T07:07:18.526Z,98738.14
2018-12-09T07:09:46.063Z,98748.10
2018-12-09T07:12:13.587Z,98754.99
2018-12-09T07:14:41.155Z,98753.55
2018-12-09T07:17:08.659Z,98761.82
2018-12-09T07:19:36.172Z,98761.33
2018-12-09T07:22:03.708Z,98768.14
2018-12-09T07:24:31.215Z,98778.48
2018-12-09T07:26:59.079Z,98793.39
2018-12-09T07:29:26.600Z,98798.89
2018-12-09T07:31:54.123Z,98798.94
2018-12-09T07:34:21.687Z,98803.98
2018-12-09T07:36:49.204Z,98812.08
2018-12-09T07:39:16.756Z,98798.54
2018-12-09T07:41:44.267Z,98813.19
2018-12-09T07:44:12.804Z,98814.52
2018-12-09T07:46:40.774Z,98821.67
2018-12-09T07:49:08.303Z,98825.90
2018-12-09T07:51:35.948Z,98829.63
2018-12-09T07:54:03.452Z,98831.88
2018-12-09T07:56:30.977Z,98834.70
2018-12-09T07:59:00.536Z,98838.10
2018-12-09T08:01:28.061Z,98838.66
2018-12-09T08:03:55.752Z,98845.84
2018-12-09T08:06:23.380Z,98845.77
2018-12-09T08:08:50.879Z,98853.08
2018-12-09T08:11:18.415Z,98846.14
2018-12-09T08:13:45.915Z,98847.74
2018-12-09T08:16:13.757Z,98861.63
2018-12-09T08:18:41.263Z,98858.37
2018-12-09T08:21:09.179Z,98867.80
2018-12-09T08:23:36.952Z,98870.37
2018-12-09T08:26:04.469Z,98873.91
2018-12-09T08:28:32.007Z,98877.49
2018-12-09T08:30:59.530Z,98870.83
2018-12-09T08:33:27.031Z,98872.27
2018-12-09T08:35:55.174Z,98885.58
2018-12-09T08:38:22.689Z,98881.22
2018-12-09T08:40:50.239Z,98875.51
2018-12-09T08:43:17.743Z,98877.17
2018-12-09T08:45:45.249Z,98889.63
2018-12-09T08:48:12.783Z,98891.92
2018-12-09T08:50:40.288Z,98892.38
2018-12-09T08:53:07.843Z,98885.19
2018-12-09T08:55:35.364Z,98886.90
2018-12-09T08:58:08.924Z,98892.34
2018-12-09T09:00:36.427Z,98896.10
2018-12-09T09:03:03.932Z,98894.45
2018-12-09T09:05:31.463Z,98898.08
2018-12-09T09:07:58.971Z,98905.16
2018-12-09T09:10:27.444Z,98901.44
2018-12-09T09:12:54.963Z,98908.67
2018-12-09T09:15:22.518Z,98911.72
2018-12-09T09:17:50.022Z,98899.45
2018-12-09T09:20:17.786Z,98910.07
2018-12-09T09:22:45.287Z,98907.96
2018-12-09T09:25:12.799Z,98900.64
2018-12-09T09:27:40.356Z,98908.06
2018-12-09T09:30:08.275Z,98903.30
2018-12-09T09:32:35.991Z,98916.48
2018-12-09T09:35:03.688Z,98920.13
2018-12-09T09:37:31.191Z,98919.12
2018-12-09T09:39:58.719Z,98916.30
2018-12-09T09:42:26.239Z,98922.61
2018-12-09T09:44:53.795Z,98919.09
2018-12-09T09:47:21.299Z,98918.66
2018-12-09T09:49:48.885Z,98908.35
2018-12-09T09:52:16.415Z,98918.17
2018-12-09T09:54:43.923Z,98921.61
2018-12-09T09:57:11.607Z,98922.86
2018-12-09T09:59:39.112Z,98911.55
2018-12-09T10:02:06.615Z,98913.27
2018-12-09T10:04:34.167Z,98911.05
2018-12-09T10:07:01.667Z,98910.30
2018-12-09T10:09:29.191Z,98905.84
2018-12-09T10:11:56.731Z,98907.36
2018-12-09T10:14:24.247Z,98902.41
2018-12-09T10:16:51.870Z,98892.84
2018-12-09T10:19:19.448Z,98885.66
2018-12-09T10:21:46.968Z,98889.63
2018-12-09T10:24:14.496Z,98891.41
2018-12-09T10:26:42.056Z,98885.11
2018-12-09T10:29:09.565Z,98892.66
2018-12-09T10:31:37.073Z,98895.23
2018-12-09T10:34:04.610Z,98892.12
2018-12-09T10:36:32.135Z,98887.77
2018-12-09T10:38:59.637Z,98884.58
2018-12-09T10:41:27.175Z,98881.26
2018-12-09T10:43:54.675Z,98878.26
2018-12-09T10:46:22.200Z,98881.23
2018-12-09T10:48:49.747Z,98876.31
2018-12-09T10:51:19.310Z,98876.02
2018-12-09T10:53:46.831Z,98876.39
2018-12-09T10:56:14.369Z,98875.53
2018-12-09T10:58:41.882Z,98882.72
2018-12-09T11:01:20.922Z,98888.92
2018-12-09T11:03:48.923Z,98894.47
2018-12-09T11:06:16.563Z,98893.64
2018-12-09T11:08:44.081Z,98901.33
2018-12-09T11:11:11.719Z,98900.58
2018-12-09T11:13:39.223Z,98903.31
2018-12-09T11:16:06.724Z,98894.69
2018-12-09T11:18:34.270Z,98898.99
2018-12-09T11:21:01.796Z,98894.86
2018-12-09T11:23:29.340Z,98899.39
2018-12-09T11:25:56.852Z,98908.33
2018-12-09T11:28:24.364Z,98903.91
2018-12-09T11:30:51.923Z,98899.44
2018-12-09T11:33:19.432Z,98894.95
2018-12-09T11:35:46.938Z,98890.88
2018-12-09T11:38:14.493Z,98885.30
2018-12-09T11:40:42.000Z,98889.95
2018-12-09T11:43:09.507Z,98882.00
2018-12-09T11:45:37.059Z,98871.02
2018-12-09T11:48:04.559Z,98883.15
2018-12-09T11:50:32.066Z,98885.55
2018-12-09T11:52:59.607Z,98886.77
2018-12-09T11:55:27.108Z,98891.31
2018-12-09T11:57:54.620Z,98893.21
2018-12-09T12:00:22.162Z,98889.70
2018-12-09T12:02:49.667Z,98878.89
2018-12-09T12:05:17.191Z,98880.69
2018-12-09T12:07:44.743Z,98863.67
2018-12-09T12:10:12.252Z,98868.58
2018-12-09T12:12:39.760Z,98871.63
2018-12-09T12:15:07.399Z,98867.36
2018-12-09T12:17:34.955Z,98865.70
2018-12-09T12:20:02.463Z,98854.48
2018-12-09T12:22:30.002Z,98852.44
2018-12-09T12:24:57.503Z,98849.86
2018-12-09T12:27:26.008Z,98850.42
2018-12-09T12:29:53.560Z,98847.38
2018-12-09T12:32:21.065Z,98840.80
2018-12-09T12:34:48.576Z,98842.33
2018-12-09T12:37:16.113Z,98839.17
2018-12-09T12:39:43.652Z,98832.50
2018-12-09T12:42:11.159Z,98836.94
2018-12-09T12:44:38.700Z,98843.23
2018-12-09T12:47:06.220Z,98856.69
2018-12-09T12:49:33.746Z,98845.06
2018-12-09T12:52:01.301Z,98846.62
2018-12-09T12:54:30.803Z,98840.77
2018-12-09T12:56:58.332Z,98841.70
2018-12-09T12:59:25.871Z,98843.42
2018-12-09T13:01:53.407Z,98844.63
2018-12-09T13:04:20.907Z,98845.57
2018-12-09T13:06:48.443Z,98851.27
2018-12-09T13:09:16.879Z,98856.77
2018-12-09T13:11:44.391Z,98860.31
2018-12-09T13:14:11.948Z,98861.55
2018-12-09T13:16:39.469Z,98868.14
2018-12-09T13:19:06.976Z,98870.87
2018-12-09T13:21:38.501Z,98873.11
2018-12-09T13:24:06.031Z,98881.61
2018-12-09T13:26:34.512Z,98889.19
2018-12-09T13:29:02.075Z,98889.82
2018-12-09T13:31:29.583Z,98889.56
2018-12-09T13:33:57.195Z,98897.01
2018-12-09T13:36:24.755Z,98899.77
2018-12-09T13:38:58.942Z,98903.87
2018-12-09T13:41:29.200Z,98919.98
2018-12-09T13:43:56.715Z,98919.52
2018-12-09T13:46:24.219Z,98926.96
2018-12-09T13:48:51.878Z,98923.87
2018-12-09T13:51:19.383Z,98935.88
2018-12-09T13:53:46.894Z,98941.89
2018-12-09T13:56:14.454Z,98939.06
2018-12-09T13:58:42.843Z,98947.63
2018-12-09T14:01:10.348Z,98949.67
2018-12-09T14:03:37.899Z,98963.33
2018-12-09T14:06:05.403Z,98968.02
2018-12-09T14:08:32.995Z,98978.59
2018-12-09T14:11:00.596Z,98985.02
2018-12-09T14:13:28.108Z,98984.83
2018-12-09T14:15:55.623Z,98995.55
2018-12-09T14:18:23.199Z,98993.58
2018-12-09T14:20:50.704Z,99005.50
2018-12-09T14:23:18.211Z,99007.30
2018-12-09T14:25:45.748Z,99011.06
2018-12-09T14:28:13.276Z,99027.25
2018-12-09T14:30:40.787Z,99023.99
2018-12-09T14:33:08.347Z,99036.06
2018-12-09T14:35:35.853Z,99045.40
2018-12-09T14:38:03.359Z,99046.98
2018-12-09T14:40:30.892Z,99051.75
2018-12-09T14:42:58.399Z,99070.31
2018-12-09T14:45:25.943Z,99069.72
2018-12-09T14:47:53.445Z,99072.03
2018-12-09T14:50:20.948Z,99070.45
2018-12-09T14:52:48.479Z,99074.62
2018-12-09T14:55:17.000Z,99077.21
2018-12-09T14:57:44.547Z,99083.72
2018-12-09T15:00:12.049Z,99086.58
2018-12-09T15:02:39.588Z,99086.30
2018-12-09T15:05:13.628Z,99089.61
2018-12-09T15:07:41.167Z,99101.75
2018-12-09T15:10:09.105Z,99106.03
2018-12-09T15:12:36.807Z,99112.93
2018-12-09T15:15:04.956Z,99122.49
2018-12-09T15:17:32.455Z,99122.77
2018-12-09T15:19:59.959Z,99128.27
2018-12-09T15:22:27.517Z,99135.83
2018-12-09T15:24:55.051Z,99148.61
2018-12-09T15:27:22.555Z,99154.08
2018-12-09T15:29:50.342Z,99166.92
2018-12-09T15:32:17.844Z,99169.58
2018-12-09T15:34:45.349Z,99177.72
2018-12-09T15:37:12.899Z,99189.58
2018-12-09T15:39:40.403Z,99195.06
2018-12-09T15:42:07.931Z,99197.92
2018-12-09T15:44:35.471Z,99205.66
2018-12-09T15:47:03.121Z,99208.66
2018-12-09T15:49:30.631Z,99222.23
2018-12-09T15:51:58.191Z,99225.61
2018-12-09T15:54:25.896Z,99234.34
2018-12-09T15:56:53.400Z,99247.47
2018-12-09T15:59:21.007Z,99256.68
2018-12-09T16:01:48.575Z,99253.91
2018-12-09T16:04:16.087Z,99270.58
2018-12-09T16:06:43.644Z,99277.02
2018-12-09T16:09:11.152Z,99287.62
2018-12-09T16:11:38.661Z,99290.33
2018-12-09T16:14:06.448Z,99298.95
2018-12-09T16:16:33.960Z,99314.52
2018-12-09T16:19:01.459Z,99326.05
2018-12-09T16:21:29.111Z,99347.59
2018-12-09T16:23:56.723Z,99356.27
2018-12-09T16:26:24.248Z,99362.66
2018-12-09T16:28:51.783Z,99368.02
2018-12-09T16:31:19.327Z,99367.78
2018-12-09T16:33:46.835Z,99357.50
2018-12-09T16:36:14.379Z,99351.60
2018-12-09T16:38:41.888Z,99361.27
2018-12-09T16:41:09.396Z,99365.78
2018-12-09T16:43:36.958Z,99370.92
2018-12-09T16:46:04.559Z,99385.20
2018-12-09T16:48:32.063Z,99391.37
2018-12-09T16:50:59.617Z,99395.72
2018-12-09T16:53:28.159Z,99393.55
2018-12-09T16:56:09.775Z,99404.25
2018-12-09T16:58:37.279Z,99411.44
2018-12-09T17:01:04.791Z,99422.63
2018-12-09T17:03:32.327Z,99425.44
2018-12-09T17:05:59.839Z,99432.27
2018-12-09T17:08:27.351Z,99441.94
2018-12-09T17:10:54.892Z,99446.55
2018-12-09T17:13:22.411Z,99448.56
2018-12-09T17:15:49.923Z,99457.12
2018-12-09T17:18:18.184Z,99472.84
2018-12-09T17:20:45.692Z,99471.41
2018-12-09T17:23:16.427Z,99475.44
2018-12-09T17:25:43.967Z,99467.83
2018-12-09T17:28:11.479Z,99483.63
2018-12-09T17:30:38.981Z,99495.59
2018-12-09T17:33:06.529Z,99498.17
2018-12-09T17:35:34.035Z,99507.44
2018-12-09T17:38:05.572Z,99505.58
2018-12-09T17:40:33.330Z,99523.09
2018-12-09T17:43:00.895Z,99525.74
2018-12-09T17:45:28.418Z,99531.84
2018-12-09T17:47:55.956Z,99538.11
2018-12-09T17:50:23.559Z,99548.48
2018-12-09T17:52:51.067Z,99550.81
2018-12-09T17:55:18.609Z,99555.44
2018-12-09T17:57:46.119Z,99557.42
2018-12-09T18:00:13.627Z,99570.34
2018-12-09T18:02:41.167Z,99564.89
2018-12-09T18:05:08.679Z,99570.92
2018-12-09T18:07:36.415Z,99576.00
2018-12-09T18:10:04.660Z,99585.53
2018-12-09T18:12:32.187Z,99584.44
2018-12-09T18:14:59.700Z,99592.08
2018-12-09T18:17:27.235Z,99604.01
2018-12-09T18:19:54.743Z,99616.22
2018-12-09T18:22:24.270Z,99630.42
2018-12-09T18:24:52.783Z,99637.15
2018-12-09T18:27:22.256Z,99635.71
2018-12-09T18:29:49.763Z,99645.23
2018-12-09T18:32:17.420Z,99646.71
2018-12-09T18:34:45.919Z,99652.63
2018-12-09T18:37:13.424Z,99666.00
2018-12-09T18:39:41.599Z,99672.67
2018-12-09T18:42:09.207Z,99677.53
2018-12-09T18:44:36.735Z,99693.86
2018-12-09T18:47:04.555Z,99685.82
2018-12-09T18:49:32.068Z,99700.66
2018-12-09T18:51:59.585Z,99708.28
2018-12-09T18:54:27.238Z,99721.79
2018-12-09T18:56:54.867Z,99727.39
2018-12-09T18:59:22.367Z,99727.80
2018-12-09T19:01:49.989Z,99732.25
2018-12-09T19:04:17.560Z,99737.14
2018-12-09T19:06:45.067Z,99737.19
2018-12-09T19:09:12.723Z,99747.56
2018-12-09T19:11:40.239Z,99747.88
2018-12-09T19:14:07.774Z,99752.30
2018-12-09T19:16:35.311Z,99758.78
2018-12-09T19:19:02.868Z,99764.27
2018-12-09T19:21:30.372Z,99765.41
2018-12-09T19:23:58.203Z,99774.03
2018-12-09T19:26:25.705Z,99777.45
2018-12-09T19:28:53.219Z,99787.55
2018-12-09T19:31:20.780Z,99793.88
2018-12-09T19:33:48.331Z,99797.94
2018-12-09T19:36:15.836Z,99801.18
2018-12-09T19:38:43.390Z,99806.44
2018-12-09T19:41:10.904Z,99810.31
2018-12-09T19:43:38.450Z,99813.36
2018-12-09T19:46:06.092Z,99812.73
2018-12-09T19:48:33.712Z,99806.30
2018-12-09T19:51:01.228Z,99803.69
2018-12-09T19:53:28.779Z,99811.89
2018-12-09T19:55:56.287Z,99818.23
2018-12-09T19:58:23.795Z,99821.24
2018-12-09T20:00:51.334Z,99830.13
2018-12-09T20:03:18.846Z,99833.36
2018-12-09T20:05:46.344Z,99844.80
2018-12-09T20:08:13.899Z,99854.94
2018-12-09T20:10:41.399Z,99855.05
2018-12-09T20:13:08.912Z,99861.13
2018-12-09T20:15:36.568Z,99874.02
2018-12-09T20:18:04.077Z,99876.44
2018-12-09T20:20:31.594Z,99876.88
2018-12-09T20:22:59.139Z,99881.30
2018-12-09T20:25:26.648Z,99891.84
2018-12-09T20:27:54.164Z,99894.91
2018-12-09T20:30:21.736Z,99891.19
2018-12-09T20:32:49.239Z,99887.05
2018-12-09T20:35:16.745Z,99897.14
2018-12-09T20:37:44.318Z,99905.57
2018-12-09T20:40:11.935Z,99911.97
2018-12-09T20:42:39.435Z,99924.33
2018-12-09T20:45:08.776Z,99934.83
2018-12-09T20:47:36.282Z,99932.64
2018-12-09T20:50:05.670Z,99945.41
2018-12-09T20:52:33.359Z,99956.82
2018-12-09T20:55:00.863Z,99975.48
2018-12-09T20:57:28.399Z,99976.25
2018-12-09T20:59:55.903Z,99982.38
2018-12-09T21:02:24.058Z,99982.07
2018-12-09T21:04:51.576Z,100014.03
2018-12-09T21:07:19.088Z,100021.30
2018-12-09T21:09:46.662Z,100027.54
2018-12-09T21:12:14.188Z,100034.05
2018-12-09T21:14:41.692Z,100039.78
2018-12-09T21:17:09.257Z,100047.43
2018-12-09T21:19:36.763Z,100052.41
2018-12-09T21:22:04.278Z,100058.47
2018-12-09T21:24:31.828Z,100051.36
2018-12-09T21:26:59.349Z,100034.73
2018-12-09T21:29:26.872Z,100051.21
2018-12-09T21:31:54.437Z,100045.83
2018-12-09T21:34:21.940Z,100052.52
2018-12-09T21:36:49.477Z,100058.78
2018-12-09T21:39:17.016Z,100053.73
2018-12-09T21:41:44.528Z,100059.80
2018-12-09T21:44:12.031Z,100064.55
2018-12-09T21:46:39.572Z,100072.21
2018-12-09T21:49:07.080Z,100075.48
2018-12-09T21:51:34.585Z,100079.74
2018-12-09T21:54:02.128Z,100080.71
2018-12-09T21:56:29.646Z,100085.31
2018-12-09T21:58:57.164Z,100094.20
2018-12-09T22:01:24.703Z,100102.13
2018-12-09T22:03:52.252Z,100097.02
2018-12-09T22:06:19.764Z,100116.73
2018-12-09T22:08:47.312Z,100116.49
2018-12-09T22:11:14.824Z,100108.05
2018-12-09T22:13:42.332Z,100104.17
2018-12-09T22:16:09.896Z,100109.77
2018-12-09T22:18:37.400Z,100118.20
2018-12-09T22:21:04.907Z,100123.45
2018-12-09T22:23:32.504Z,100127.75
2018-12-09T22:26:00.079Z,100136.33
2018-12-09T22:28:27.588Z,100138.38
2018-12-09T22:30:55.127Z,100145.38
2018-12-09T22:33:22.652Z,100154.33
2018-12-09T22:35:50.156Z,100152.98
2018-12-09T22:38:17.715Z,100147.27
2018-12-09T22:40:45.219Z,100156.38
2018-12-09T22:43:12.756Z,100160.05
2018-12-09T22:45:40.291Z,100166.95
2018-12-09T22:48:07.807Z,100175.44
2018-12-09T22:50:35.335Z,100178.61
2018-12-09T22:53:02.918Z,100182.52
2018-12-09T22:55:30.420Z,100190.87
2018-12-09T22:57:58.027Z,100189.24
2018-12-09T23:00:26.971Z,100188.48
2018-12-09T23:03:00.099Z,100190.39
2018-12-09T23:05:27.738Z,100196.84
2018-12-09T23:07:55.245Z,100195.73
2018-12-09T23:10:22.856Z,100202.05
2018-12-09T23:12:50.392Z,100203.77
2018-12-09T23:15:17.920Z,100197.36
2018-12-09T23:17:45.947Z,100203.21
2018-12-09T23:20:13.567Z,100197.98
2018-12-09T23:22:41.083Z,100199.45
2018-12-09T23:25:08.628Z,100211.19
2018-12-09T23:27:36.139Z,100211.69
2018-12-09T23:30:04.499Z,100224.40
2018-12-09T23:32:32.023Z,100229.34
2018-12-09T23:34:59.544Z,100236.54
2018-12-09T23:37:27.092Z,100234.30
2018-12-09T23:39:54.611Z,100238.66
2018-12-09T23:42:22.175Z,100242.64
2018-12-09T23:44:49.692Z,100250.14
2018-12-09T23:47:17.333Z,100252.04
2018-12-09T23:49:44.842Z,100249.84
2018-12-09T23:52:12.359Z,100247.11
2018-12-09T23:54:39.919Z,100243.20
2018-12-09T23:57:07.533Z,100252.04
2018-12-09T23:59:35.209Z,100262.93
